Zullinger, Pennsylvania
Current Conditions -  °F | °C
As of 4:53 AM on Saturday 01 Nov 2014 (Local Time) from KHGR Reporting Station
Overcast Overcast  
Wind Chill: 42°   Ceiling: 4000
Heat Index: 46°   Visibility: 10mi
Dew Point: 36°   Wind: 8mph
Humidity: 68%   Direction: 340°NNW
Pressure: 29.8"   Gusts: NA
Location:  39.77°N, 77.63°W
Report Text: KHGR 010853Z AUTO 34007KT 10SM OVC040 08/02 A2980 RMK AO2 SLP104 T00780022 56008
Loading
Personal Weather Stations






























Interactive Weather Map
Tropical Storm Tracking
New forecast layout! Learn more

10-Day Weather Forecast

Advertisements
Track Severe Weather on mobile